Time;durP1;ratioP1;P1;durP2;ratioP2;P2;SDS_P1;SDS_P2;PMS_P1;PMS_P2;Temp;Humidity;BMP_temperature;BMP_pressure;BME280_temperature;BME280_humidity;BME280_pressure;Samples;Min_cycle;Max_cycle;Signal;HPM_P1;HPM_P2
2023/11/29 00:00:30;;;;;;;25.50;16.77;;;;;;;-146.25;100.00;52613.53;2095661;28;24753;-75
2023/11/29 00:01:34;;;;;;;23.80;16.70;;;;;;;-146.25;100.00;52611.50;2095022;28;39743;-75
2023/11/29 00:02:36;;;;;;;23.23;16.00;;;;;;;-146.25;100.00;52631.78;2087419;28;42959;-75
2023/11/29 00:03:39;;;;;;;24.15;16.77;;;;;;;-146.25;100.00;52623.69;2087559;28;44099;-75
2023/11/29 00:04:41;;;;;;;22.77;15.98;;;;;;;-146.25;100.00;52639.91;2087266;28;44231;-75
2023/11/29 00:05:43;;;;;;;23.35;15.40;;;;;;;-146.25;100.00;52633.81;2087555;28;41537;-75
2023/11/29 00:06:46;;;;;;;26.10;16.58;;;;;;;-146.25;100.00;52660.19;2088232;28;20113;-75
2023/11/29 00:07:48;;;;;;;31.98;17.90;;;;;;;-146.25;100.00;52631.78;2094940;28;46266;-75
2023/11/29 00:08:54;;;;;;;25.75;17.20;;;;;;;-146.25;100.00;52607.47;2094557;28;40249;-75
2023/11/29 00:09:56;;;;;;;27.20;17.75;;;;;;;-146.25;100.00;52629.75;2087662;28;41851;-75
2023/11/29 00:10:57;;;;;;;29.55;16.35;;;;;;;-146.25;100.00;52648.00;2088787;28;41742;-76
2023/11/29 00:11:59;;;;;;;23.33;16.73;;;;;;;-146.25;100.00;52652.06;2089055;28;43575;-76
2023/11/29 00:13:01;;;;;;;24.70;16.85;;;;;;;-146.25;100.00;52639.91;2088968;28;42952;-75
2023/11/29 00:14:02;;;;;;;27.35;17.38;;;;;;;-146.25;100.00;52631.78;2089340;28;42015;-76
2023/11/29 00:15:05;;;;;;;27.85;16.70;;;;;;;-146.25;100.00;52615.56;2089351;28;25279;-75
2023/11/29 00:16:07;;;;;;;28.05;16.88;;;;;;;-146.25;100.00;52633.81;2088957;28;42867;-75
2023/11/29 00:17:10;;;;;;;27.27;17.58;;;;;;;-146.25;100.00;52625.72;2089277;28;41277;-75
2023/11/29 00:18:13;;;;;;;25.10;16.58;;;;;;;-146.25;100.00;52631.78;2080478;28;23337;-75
2023/11/29 00:19:15;;;;;;;26.27;17.10;;;;;;;-146.25;100.00;52637.88;2080749;28;43339;-75
2023/11/29 00:20:19;;;;;;;25.27;16.05;;;;;;;-146.25;100.00;52662.22;2088970;28;43669;-75
2023/11/29 00:21:21;;;;;;;23.85;17.23;;;;;;;-146.25;100.00;52639.91;2089647;28;20044;-74
2023/11/29 00:22:23;;;;;;;28.98;17.33;;;;;;;-146.25;100.00;52635.84;2088455;28;44839;-75
2023/11/29 00:23:25;;;;;;;24.45;16.95;;;;;;;-146.25;100.00;52633.81;2088103;28;43389;-74
2023/11/29 00:24:29;;;;;;;26.35;17.05;;;;;;;-146.25;100.00;52637.88;2088821;28;20080;-75
2023/11/29 00:25:30;;;;;;;24.30;15.77;;;;;;;-146.25;100.00;52650.03;2087915;28;43328;-76
2023/11/29 00:26:32;;;;;;;26.60;16.42;;;;;;;-146.25;100.00;52617.59;2088096;28;42435;-76
2023/11/29 00:27:35;;;;;;;29.38;17.70;;;;;;;-146.25;100.00;52605.44;2089243;28;20041;-76
2023/11/29 00:28:36;;;;;;;24.40;17.20;;;;;;;-146.25;100.00;52617.59;2089253;28;30185;-77
2023/11/29 00:29:38;;;;;;;26.75;17.40;;;;;;;-146.25;100.00;52639.91;2089594;28;20081;-76
2023/11/29 00:30:40;;;;;;;29.80;16.95;;;;;;;-146.25;100.00;52601.38;2080746;28;20871;-77
2023/11/29 00:31:42;;;;;;;25.20;17.48;;;;;;;-146.25;100.00;52650.03;2071903;28;32868;-77
2023/11/29 00:32:43;;;;;;;25.80;17.95;;;;;;;-146.25;100.00;52625.72;2088690;28;30109;-76
2023/11/29 00:33:45;;;;;;;26.52;17.23;;;;;;;-146.25;100.00;52625.72;2088263;28;33647;-77
2023/11/29 00:34:49;;;;;;;27.80;17.77;;;;;;;-146.25;100.00;52625.72;2088963;28;20955;-77
2023/11/29 00:35:51;;;;;;;25.30;16.25;;;;;;;-146.25;100.00;52639.91;2080697;28;28588;-77
2023/11/29 00:36:54;;;;;;;27.58;17.35;;;;;;;-146.25;100.00;52635.84;2072235;28;21268;-78
2023/11/29 00:37:55;;;;;;;25.65;17.65;;;;;;;-146.25;100.00;52603.41;2072021;28;42763;-78
2023/11/29 00:38:58;;;;;;;26.05;17.70;;;;;;;-146.25;100.00;52656.13;2088270;28;20929;-78
2023/11/29 00:39:59;;;;;;;26.73;17.00;;;;;;;-146.25;100.00;52648.00;2079655;28;38060;-78
2023/11/29 00:41:04;;;;;;;27.27;17.40;;;;;;;-146.25;100.00;52676.41;2080857;28;38362;-78
2023/11/29 00:42:05;;;;;;;24.17;17.42;;;;;;;-146.25;100.00;52621.66;2096896;28;20088;-77
2023/11/29 00:43:07;;;;;;;21.30;15.98;;;;;;;-146.25;100.00;52652.06;2080400;28;20897;-77
2023/11/29 00:44:15;;;;;;;25.42;16.90;;;;;;;-146.25;100.00;52684.50;2073400;28;20058;-77
2023/11/29 00:45:17;;;;;;;26.58;17.00;;;;;;;-146.25;100.00;52648.00;2081486;28;20069;-78
2023/11/29 00:46:19;;;;;;;26.35;17.55;;;;;;;-146.25;100.00;52652.06;2089005;28;28456;-77
2023/11/29 00:47:20;;;;;;;25.42;17.10;;;;;;;-146.25;100.00;52625.72;2089291;28;20077;-77
2023/11/29 00:48:22;;;;;;;25.45;17.13;;;;;;;-146.25;100.00;52643.97;2088440;28;28582;-77
2023/11/29 00:49:24;;;;;;;24.77;17.15;;;;;;;-146.25;100.00;52643.97;2089013;28;37351;-76
2023/11/29 00:50:25;;;;;;;26.65;17.92;;;;;;;-146.25;100.00;52648.00;2089614;28;20084;-77
2023/11/29 00:51:27;;;;;;;26.58;17.70;;;;;;;-146.25;100.00;52654.09;2089117;28;35631;-76
2023/11/29 00:52:31;;;;;;;26.83;16.83;;;;;;;-146.25;100.00;52658.16;2088893;28;35366;-77
2023/11/29 00:53:33;;;;;;;25.67;18.02;;;;;;;-146.25;100.00;52627.75;2089347;28;20049;-77
2023/11/29 00:54:35;;;;;;;26.55;17.75;;;;;;;-146.25;100.00;52643.97;2087876;28;30605;-77
2023/11/29 00:55:36;;;;;;;24.50;17.88;;;;;;;-146.25;100.00;52639.91;2087926;28;42390;-77
2023/11/29 00:56:38;;;;;;;23.58;17.20;;;;;;;-146.25;100.00;52625.72;2088269;28;36403;-77
2023/11/29 00:57:40;;;;;;;23.77;16.90;;;;;;;-146.25;100.00;52658.16;2088864;28;36880;-76
2023/11/29 00:58:43;;;;;;;22.33;16.38;;;;;;;-146.25;100.00;52658.16;2080546;28;20046;-76
2023/11/29 00:59:45;;;;;;;24.17;15.60;;;;;;;-146.25;100.00;52631.78;2080348;28;26614;-76
2023/11/29 01:00:49;;;;;;;26.88;17.30;;;;;;;-146.25;100.00;52613.53;2087972;28;44618;-76
2023/11/29 01:01:53;;;;;;;23.27;16.33;;;;;;;-146.25;100.00;52635.84;2088699;28;20060;-76
2023/11/29 01:02:56;;;;;;;22.52;16.33;;;;;;;-146.25;100.00;52631.78;2080297;28;36812;-75
2023/11/29 01:04:03;;;;;;;24.52;15.77;;;;;;;-146.25;100.00;52643.97;2088726;28;35993;-75
2023/11/29 01:05:05;;;;;;;23.83;16.08;;;;;;;-146.25;100.00;52615.56;2089590;28;20045;-74
2023/11/29 01:06:09;;;;;;;21.50;15.38;;;;;;;-146.25;100.00;52611.50;2088294;28;40013;-74
2023/11/29 01:07:13;;;;;;;22.77;15.60;;;;;;;-146.25;100.00;52637.88;2080440;28;20104;-74
2023/11/29 01:08:15;;;;;;;23.08;16.30;;;;;;;-146.25;100.00;52645.97;2080717;28;38584;-75
2023/11/29 01:09:19;;;;;;;21.13;15.20;;;;;;;-146.25;100.00;52652.06;2079507;28;34570;-74
2023/11/29 01:10:20;;;;;;;20.13;15.10;;;;;;;-146.25;100.00;52625.72;2088387;28;34241;-74
2023/11/29 01:11:24;;;;;;;19.63;15.25;;;;;;;-146.25;100.00;52619.63;2080484;28;20050;-74
2023/11/29 01:12:28;;;;;;;23.05;15.18;;;;;;;-146.25;100.00;52680.47;2081451;28;20049;-75
2023/11/29 01:13:30;;;;;;;23.60;15.73;;;;;;;-146.25;100.00;52619.63;2088871;28;30594;-74
2023/11/29 01:14:32;;;;;;;21.98;15.60;;;;;;;-146.25;100.00;52643.97;2089106;28;31759;-74
2023/11/29 01:15:34;;;;;;;20.45;15.63;;;;;;;-146.25;100.00;52641.94;2079632;28;42485;-74
2023/11/29 01:16:35;;;;;;;20.98;15.98;;;;;;;-146.25;100.00;52635.84;2080641;28;21026;-74
2023/11/29 01:17:37;;;;;;;21.40;16.08;;;;;;;-146.25;100.00;52627.75;2088132;28;24637;-74
2023/11/29 01:18:43;;;;;;;22.45;15.85;;;;;;;-146.25;100.00;52607.47;2088395;28;36862;-74
2023/11/29 01:19:45;;;;;;;20.17;14.95;;;;;;;-146.25;100.00;52643.97;2088839;28;20165;-73
2023/11/29 01:20:48;;;;;;;20.20;13.90;;;;;;;-146.25;100.00;52676.41;2079941;28;37646;-73
2023/11/29 01:21:50;;;;;;;20.25;14.32;;;;;;;-146.25;100.00;52639.91;2087385;28;37081;-73
2023/11/29 01:22:52;;;;;;;22.27;15.48;;;;;;;-146.25;100.00;52631.78;2088559;28;31388;-74
2023/11/29 01:23:54;;;;;;;22.73;15.98;;;;;;;-146.25;100.00;52629.75;2088768;28;29551;-73
2023/11/29 01:24:56;;;;;;;19.60;14.25;;;;;;;-146.25;100.00;52615.56;2088704;28;36910;-74
2023/11/29 01:25:57;;;;;;;18.80;14.63;;;;;;;-146.25;100.00;52658.16;2088900;28;37923;-73
2023/11/29 01:27:01;;;;;;;20.98;15.52;;;;;;;-146.25;100.00;52641.94;2088039;28;37962;-73
2023/11/29 01:28:03;;;;;;;20.70;14.38;;;;;;;-146.25;100.00;52591.25;2088080;28;38233;-73
2023/11/29 01:29:05;;;;;;;20.20;14.68;;;;;;;-146.25;100.00;52637.88;2089567;28;20140;-73
2023/11/29 01:30:08;;;;;;;19.95;14.75;;;;;;;-146.25;100.00;52631.78;2088437;28;35005;-73
2023/11/29 01:31:10;;;;;;;17.77;13.88;;;;;;;-146.25;100.00;52589.22;2088209;28;39163;-73
2023/11/29 01:32:11;;;;;;;19.70;14.65;;;;;;;-146.25;100.00;52631.78;2080032;28;33165;-73
2023/11/29 01:33:13;;;;;;;24.08;15.43;;;;;;;-146.25;100.00;52643.97;2079844;28;42945;-73
2023/11/29 01:34:16;;;;;;;19.00;13.85;;;;;;;-146.25;100.00;52650.03;2080518;28;20050;-73
2023/11/29 01:35:18;;;;;;;19.05;13.93;;;;;;;-146.25;100.00;52658.16;2087935;28;36784;-73
2023/11/29 01:36:20;;;;;;;17.42;14.20;;;;;;;-146.25;100.00;52668.28;2088730;28;33453;-73
2023/11/29 01:37:21;;;;;;;19.10;14.65;;;;;;;-146.25;100.00;52690.59;2080825;28;20053;-73
2023/11/29 01:38:23;;;;;;;18.23;14.10;;;;;;;-146.25;100.00;52617.59;2079163;28;43832;-72
2023/11/29 01:39:25;;;;;;;21.98;14.77;;;;;;;-146.25;100.00;52641.94;2088786;28;28336;-72
2023/11/29 01:40:26;;;;;;;18.33;13.52;;;;;;;-146.25;100.00;52621.66;2088755;28;30056;-73
2023/11/29 01:41:30;;;;;;;15.85;13.32;;;;;;;-146.25;100.00;52648.00;2088677;28;21006;-73
2023/11/29 01:42:31;;;;;;;19.92;14.00;;;;;;;-146.25;100.00;52639.91;2079782;28;22185;-72
2023/11/29 01:43:33;;;;;;;19.85;14.60;;;;;;;-146.25;100.00;52652.06;2088000;28;39147;-73
2023/11/29 01:44:35;;;;;;;20.45;14.90;;;;;;;-146.25;100.00;52654.09;2087954;28;32372;-73
2023/11/29 01:45:36;;;;;;;18.27;14.15;;;;;;;-146.25;100.00;52625.72;2079628;28;37478;-72
2023/11/29 01:46:38;;;;;;;18.90;13.50;;;;;;;-146.25;100.00;52605.44;2087535;28;38063;-72
2023/11/29 01:47:40;;;;;;;17.17;14.27;;;;;;;-146.25;100.00;52678.44;2088298;28;37516;-72
2023/11/29 01:48:42;;;;;;;16.75;13.90;;;;;;;-146.25;100.00;52623.69;2079785;28;34228;-72
2023/11/29 01:49:44;;;;;;;18.02;14.77;;;;;;;-146.25;100.00;52660.19;2079681;28;36391;-72
2023/11/29 01:50:49;;;;;;;17.08;13.45;;;;;;;-146.25;100.00;52619.63;2088620;28;20037;-73
2023/11/29 01:51:53;;;;;;;18.92;14.00;;;;;;;-146.25;100.00;52660.19;2088153;28;32329;-73
2023/11/29 01:52:55;;;;;;;18.30;13.73;;;;;;;-146.25;100.00;52599.34;2087864;28;33729;-72
2023/11/29 01:54:00;;;;;;;18.08;13.25;;;;;;;-146.25;100.00;52623.69;2088005;28;20080;-72
2023/11/29 01:55:08;;;;;;;16.77;13.65;;;;;;;-146.25;100.00;52609.50;2080322;28;32255;-72
2023/11/29 01:56:10;;;;;;;17.35;13.55;;;;;;;-146.25;100.00;52621.66;2081430;28;36307;-73
2023/11/29 01:57:14;;;;;;;17.88;13.13;;;;;;;-146.25;100.00;52635.84;2079893;28;20052;-73
2023/11/29 01:58:17;;;;;;;16.73;14.00;;;;;;;-146.25;100.00;52609.50;2072938;28;20046;-73
2023/11/29 01:59:18;;;;;;;16.35;13.13;;;;;;;-146.25;100.00;52676.41;2079440;28;20080;-73
2023/11/29 02:00:21;;;;;;;18.92;13.68;;;;;;;-146.25;100.00;52627.75;2088652;28;20038;-73
2023/11/29 02:01:22;;;;;;;19.67;13.25;;;;;;;-146.25;100.00;52631.78;2096118;28;38005;-73
2023/11/29 02:02:24;;;;;;;16.65;13.45;;;;;;;-146.25;100.00;52619.63;2088022;28;35732;-74
2023/11/29 02:03:27;;;;;;;17.65;12.75;;;;;;;-146.25;100.00;52686.53;2080231;28;20053;-74
2023/11/29 02:04:29;;;;;;;17.27;13.43;;;;;;;-146.25;100.00;52631.78;2079988;28;38834;-74
2023/11/29 02:05:32;;;;;;;15.65;12.20;;;;;;;-146.25;100.00;52629.75;2080099;28;20156;-75
2023/11/29 02:06:33;;;;;;;16.95;12.68;;;;;;;-146.25;100.00;52631.78;2087557;28;35256;-75
2023/11/29 02:07:36;;;;;;;16.02;12.55;;;;;;;-146.25;100.00;52664.22;2088522;28;34638;-75
2023/11/29 02:08:37;;;;;;;13.93;11.38;;;;;;;-146.25;100.00;52641.94;2087540;28;38106;-75
2023/11/29 02:09:40;;;;;;;17.30;13.18;;;;;;;-146.25;100.00;52615.56;2079776;28;20042;-76
2023/11/29 02:10:42;;;;;;;17.65;12.90;;;;;;;-146.25;100.00;52662.22;2088264;28;35803;-76
2023/11/29 02:11:45;;;;;;;14.70;12.02;;;;;;;-146.25;100.00;52627.75;2087687;28;31691;-75
2023/11/29 02:12:50;;;;;;;17.40;12.50;;;;;;;-146.25;100.00;52587.19;2079536;28;41008;-77
2023/11/29 02:13:51;;;;;;;15.63;12.30;;;;;;;-146.25;100.00;52658.16;2079680;28;40544;-76
2023/11/29 02:14:57;;;;;;;15.77;12.48;;;;;;;-146.25;100.00;52611.50;2087765;28;30675;-77
2023/11/29 02:16:02;;;;;;;15.40;12.57;;;;;;;-146.25;100.00;52656.13;2079878;28;22114;-75
2023/11/29 02:17:04;;;;;;;15.82;12.70;;;;;;;-146.25;100.00;52645.97;2072515;28;43112;-77
2023/11/29 02:18:05;;;;;;;16.42;13.23;;;;;;;-146.25;100.00;52613.53;2088302;28;20097;-77
2023/11/29 02:19:07;;;;;;;15.52;12.77;;;;;;;-146.25;100.00;52666.25;2087182;28;40818;-77
2023/11/29 02:20:13;;;;;;;15.65;12.98;;;;;;;-146.25;100.00;52623.69;2087643;28;36876;-77
2023/11/29 02:21:16;;;;;;;13.90;12.02;;;;;;;-146.25;100.00;52658.16;2087745;28;42074;-77
2023/11/29 02:22:19;;;;;;;13.88;11.80;;;;;;;-146.25;100.00;52648.00;2079042;28;41766;-77
2023/11/29 02:23:31;;;;;;;14.23;11.93;;;;;;;-146.25;100.00;52660.19;2080769;28;20156;-77
2023/11/29 02:24:41;;;;;;;14.35;11.68;;;;;;;-146.25;100.00;52619.63;2087021;28;27500;-77
2023/11/29 02:25:43;;;;;;;15.40;11.48;;;;;;;-146.25;100.00;52643.97;2080762;28;29314;-77
2023/11/29 02:26:45;;;;;;;14.18;11.90;;;;;;;-146.25;100.00;52660.19;2080325;28;20116;-76
2023/11/29 02:27:46;;;;;;;14.23;11.98;;;;;;;-146.25;100.00;52617.59;2088185;28;20135;-77
2023/11/29 02:28:51;;;;;;;15.90;12.38;;;;;;;-146.25;100.00;52633.81;2088151;28;33923;-77
2023/11/29 02:29:53;;;;;;;14.25;11.50;;;;;;;-146.25;100.00;52585.16;2088069;28;20038;-77
2023/11/29 02:30:55;;;;;;;16.38;12.23;;;;;;;-146.25;100.00;52605.44;2087796;28;29117;-78
2023/11/29 02:31:57;;;;;;;13.82;10.80;;;;;;;-146.25;100.00;52595.28;2088285;28;34638;-77
2023/11/29 02:32:59;;;;;;;14.88;11.73;;;;;;;-146.25;100.00;52639.91;2088418;28;31114;-77
2023/11/29 02:34:03;;;;;;;18.38;13.13;;;;;;;-146.25;100.00;52635.84;2087561;28;40933;-76
2023/11/29 02:35:05;;;;;;;14.35;12.38;;;;;;;-146.25;100.00;52650.03;2079792;28;36353;-76
2023/11/29 02:36:07;;;;;;;14.82;11.88;;;;;;;-146.25;100.00;52672.34;2088141;28;20097;-77
2023/11/29 02:37:13;;;;;;;14.70;12.10;;;;;;;-146.25;100.00;52643.97;2087072;28;35066;-77
2023/11/29 02:38:15;;;;;;;15.38;12.07;;;;;;;-146.25;100.00;52643.97;2080454;28;20038;-76
2023/11/29 02:39:17;;;;;;;14.48;10.93;;;;;;;-146.25;100.00;52603.41;2079103;28;36471;-77
2023/11/29 02:40:19;;;;;;;15.13;12.00;;;;;;;-146.25;100.00;52633.81;2087513;28;31330;-77
2023/11/29 02:41:21;;;;;;;16.23;11.35;;;;;;;-146.25;100.00;52623.69;2087994;28;20048;-77
2023/11/29 02:42:23;;;;;;;15.45;11.55;;;;;;;-146.25;100.00;52623.69;2087724;28;32141;-78
2023/11/29 02:43:26;;;;;;;15.68;12.50;;;;;;;-146.25;100.00;52629.75;2087522;28;37303;-76
2023/11/29 02:44:30;;;;;;;15.73;12.52;;;;;;;-146.25;100.00;52633.81;2088131;28;20157;-78
2023/11/29 02:45:33;;;;;;;15.35;12.27;;;;;;;-146.25;100.00;52643.97;2087906;28;20107;-77
2023/11/29 02:46:36;;;;;;;15.63;12.45;;;;;;;-146.25;100.00;52641.94;2088347;28;20061;-77
2023/11/29 02:47:37;;;;;;;16.15;12.77;;;;;;;-146.25;100.00;52597.31;2088024;28;30653;-78
2023/11/29 02:48:40;;;;;;;13.88;11.88;;;;;;;-146.25;100.00;52617.59;2088172;28;20167;-77
2023/11/29 02:49:42;;;;;;;14.27;11.55;;;;;;;-146.25;100.00;52615.56;2088144;28;20149;-77
2023/11/29 02:50:44;;;;;;;14.30;11.75;;;;;;;-146.25;100.00;52643.97;2088853;28;20119;-76
2023/11/29 02:51:46;;;;;;;13.98;11.88;;;;;;;-146.25;100.00;52639.91;2087487;28;30842;-77
2023/11/29 02:52:48;;;;;;;14.77;12.68;;;;;;;-146.25;100.00;52637.88;2079750;28;20168;-77
2023/11/29 02:53:50;;;;;;;15.38;12.77;;;;;;;-146.25;100.00;52676.41;2079630;28;25058;-77
2023/11/29 02:54:51;;;;;;;16.08;12.70;;;;;;;-146.25;100.00;52662.22;2087644;28;34031;-78
2023/11/29 02:55:56;;;;;;;15.57;11.75;;;;;;;-146.25;100.00;52641.94;2088546;28;20538;-77
2023/11/29 02:56:58;;;;;;;16.63;13.27;;;;;;;-146.25;100.00;52611.50;2079505;28;35734;-77
2023/11/29 02:58:00;;;;;;;16.02;12.88;;;;;;;-146.25;100.00;52643.97;2079855;28;37437;-77
2023/11/29 02:59:04;;;;;;;16.95;13.32;;;;;;;-146.25;100.00;52613.53;2088223;28;20038;-77
2023/11/29 03:00:09;;;;;;;15.95;12.68;;;;;;;-146.25;100.00;52633.81;2071156;28;38001;-77
2023/11/29 03:01:10;;;;;;;14.60;12.50;;;;;;;-146.25;100.00;52639.91;2079953;28;36031;-76
2023/11/29 03:02:13;;;;;;;14.13;12.30;;;;;;;-146.25;100.00;52623.69;2096481;28;20127;-76
2023/11/29 03:03:15;;;;;;;16.13;13.10;;;;;;;-146.25;100.00;52662.22;2087798;28;23545;-75
2023/11/29 03:04:17;;;;;;;15.75;13.43;;;;;;;-146.25;100.00;52619.63;2087163;28;38654;-77
2023/11/29 03:05:19;;;;;;;15.52;12.80;;;;;;;-146.25;100.00;52635.84;2096479;28;20830;-76
2023/11/29 03:06:21;;;;;;;15.57;12.90;;;;;;;-146.25;100.00;52611.50;2095411;28;40411;-77
2023/11/29 03:07:23;;;;;;;17.52;12.55;;;;;;;-146.25;100.00;52617.59;2087999;28;20931;-77
2023/11/29 03:08:27;;;;;;;16.48;13.23;;;;;;;-146.25;100.00;52627.75;2087419;28;20071;-76
2023/11/29 03:09:32;;;;;;;15.93;13.68;;;;;;;-146.25;100.00;52672.34;2086813;28;31415;-76
2023/11/29 03:10:36;;;;;;;16.45;13.70;;;;;;;-146.25;100.00;52613.53;2095032;28;40918;-77
2023/11/29 03:11:38;;;;;;;17.05;14.02;;;;;;;-146.25;100.00;52639.91;2094984;28;37110;-76
2023/11/29 03:12:39;;;;;;;18.17;15.13;;;;;;;-146.25;100.00;52615.56;2088254;28;30079;-76
2023/11/29 03:13:41;;;;;;;18.38;15.55;;;;;;;-146.25;100.00;52645.97;2095217;28;29435;-74
2023/11/29 03:14:43;;;;;;;19.05;15.50;;;;;;;-146.25;100.00;52623.69;2095200;28;34681;-77
2023/11/29 03:15:45;;;;;;;19.08;15.55;;;;;;;-146.25;100.00;52637.88;2088502;28;22529;-75
2023/11/29 03:16:46;;;;;;;18.90;15.43;;;;;;;-146.25;100.00;52658.16;2088131;28;20041;-77
2023/11/29 03:17:48;;;;;;;21.80;17.73;;;;;;;-146.25;100.00;52639.91;2079530;28;39657;-77
2023/11/29 03:18:50;;;;;;;22.48;17.27;;;;;;;-146.25;100.00;52623.69;2079339;28;33218;-77
2023/11/29 03:19:52;;;;;;;20.60;17.77;;;;;;;-146.25;100.00;52619.63;2088077;28;35915;-77
2023/11/29 03:20:56;;;;;;;22.83;17.52;;;;;;;-146.25;100.00;52621.66;2087910;28;34042;-77
2023/11/29 03:21:58;;;;;;;24.33;19.45;;;;;;;-146.25;100.00;52609.50;2087982;28;20937;-77
2023/11/29 03:22:59;;;;;;;25.67;20.02;;;;;;;-146.25;100.00;52650.03;2087196;28;36782;-77
2023/11/29 03:24:01;;;;;;;24.55;19.58;;;;;;;-146.25;100.00;52621.66;2087268;28;28146;-77
2023/11/29 03:25:03;;;;;;;27.35;21.13;;;;;;;-146.25;100.00;52668.28;2087668;28;20048;-78
2023/11/29 03:26:05;;;;;;;27.52;20.58;;;;;;;-146.25;100.00;52587.19;2088179;28;34524;-77
2023/11/29 03:27:07;;;;;;;26.83;21.20;;;;;;;-146.25;100.00;52603.41;2087102;28;33295;-77
2023/11/29 03:28:08;;;;;;;29.02;22.17;;;;;;;-146.25;100.00;52635.84;2088174;28;20046;-77
2023/11/29 03:29:10;;;;;;;30.33;22.55;;;;;;;-146.25;100.00;52631.78;2086827;28;39893;-77
2023/11/29 03:30:13;;;;;;;29.70;22.65;;;;;;;-146.25;100.00;52633.81;2087464;28;36020;-77
2023/11/29 03:31:17;;;;;;;29.27;22.05;;;;;;;-146.25;100.00;52639.91;2087411;28;24717;-76
2023/11/29 03:32:19;;;;;;;29.27;23.10;;;;;;;-146.25;100.00;52621.66;2079999;28;20046;-77
2023/11/29 03:33:21;;;;;;;30.73;23.08;;;;;;;-146.25;100.00;52670.31;2087438;28;27067;-78
2023/11/29 03:34:23;;;;;;;32.50;23.65;;;;;;;-146.25;100.00;52652.06;2088575;28;20088;-78
2023/11/29 03:35:25;;;;;;;31.42;23.95;;;;;;;-146.25;100.00;52643.97;2086923;28;43684;-76
2023/11/29 03:36:27;;;;;;;31.15;23.98;;;;;;;-146.25;100.00;52648.00;2079804;28;20184;-77
2023/11/29 03:37:29;;;;;;;30.83;23.63;;;;;;;-146.25;100.00;52648.00;2087135;28;30553;-77
2023/11/29 03:38:31;;;;;;;32.58;24.85;;;;;;;-146.25;100.00;52641.94;2078932;28;40765;-78
2023/11/29 03:39:32;;;;;;;32.15;24.63;;;;;;;-146.25;100.00;52627.75;2079268;28;31322;-78
2023/11/29 03:40:34;;;;;;;30.13;23.50;;;;;;;-146.25;100.00;52615.56;2087810;28;28216;-78
2023/11/29 03:41:36;;;;;;;33.22;25.35;;;;;;;-146.25;100.00;52639.91;2087145;28;36815;-78
2023/11/29 03:42:37;;;;;;;32.95;25.77;;;;;;;-146.25;100.00;52656.13;2087986;28;35597;-78
2023/11/29 03:43:42;;;;;;;31.20;24.23;;;;;;;-146.25;100.00;52635.84;2087339;28;36150;-78
2023/11/29 03:44:43;;;;;;;35.13;25.63;;;;;;;-146.25;100.00;52652.06;2087191;28;36836;-78
2023/11/29 03:45:46;;;;;;;32.78;24.75;;;;;;;-146.25;100.00;52674.38;2088332;28;20163;-78
2023/11/29 03:46:48;;;;;;;31.08;24.40;;;;;;;-146.25;100.00;52643.97;2088119;28;29650;-78
2023/11/29 03:47:49;;;;;;;33.58;25.38;;;;;;;-146.25;100.00;52609.50;2087880;28;33440;-77
2023/11/29 03:48:51;;;;;;;30.85;24.23;;;;;;;-146.25;100.00;52652.06;2087446;28;38394;-78
2023/11/29 03:49:53;;;;;;;29.08;22.90;;;;;;;-146.25;100.00;52682.47;2078560;28;38996;-77
2023/11/29 03:50:55;;;;;;;33.20;25.00;;;;;;;-146.25;100.00;52658.16;2088119;28;20909;-78
2023/11/29 03:51:56;;;;;;;32.92;25.40;;;;;;;-146.25;100.00;52619.63;2087133;28;41783;-78
2023/11/29 03:52:58;;;;;;;33.42;24.77;;;;;;;-146.25;100.00;52621.66;2087720;28;38790;-78
2023/11/29 03:54:00;;;;;;;32.80;25.05;;;;;;;-146.25;100.00;52658.16;2086584;28;42487;-78
2023/11/29 03:55:02;;;;;;;34.05;25.48;;;;;;;-146.25;100.00;52639.91;2086646;28;37544;-78
2023/11/29 03:56:04;;;;;;;34.47;25.90;;;;;;;-146.25;100.00;52672.34;2095791;28;20048;-77
2023/11/29 03:57:06;;;;;;;33.97;26.15;;;;;;;-146.25;100.00;52627.75;2087410;28;33846;-77
2023/11/29 03:58:07;;;;;;;34.50;26.48;;;;;;;-146.25;100.00;52617.59;2079076;28;34393;-77
2023/11/29 03:59:10;;;;;;;33.17;25.88;;;;;;;-146.25;100.00;52629.75;2087065;28;35239;-78
2023/11/29 04:00:13;;;;;;;34.72;26.23;;;;;;;-146.25;100.00;52617.59;2087771;28;29945;-78
2023/11/29 04:01:18;;;;;;;34.17;26.45;;;;;;;-146.25;100.00;52662.22;2079662;28;20076;-78
2023/11/29 04:02:19;;;;;;;37.17;27.15;;;;;;;-146.25;100.00;52660.19;2079505;28;41450;-77
2023/11/29 04:03:21;;;;;;;36.47;26.80;;;;;;;-146.25;100.00;52639.91;2095573;28;35355;-77
2023/11/29 04:04:23;;;;;;;34.25;26.33;;;;;;;-146.25;100.00;52637.88;2088379;28;20052;-77
2023/11/29 04:05:25;;;;;;;35.40;26.25;;;;;;;-146.25;100.00;52660.19;2087775;28;41591;-77
2023/11/29 04:06:28;;;;;;;36.38;26.90;;;;;;;-146.25;100.00;52623.69;2086931;28;43080;-78
2023/11/29 04:07:31;;;;;;;37.13;27.48;;;;;;;-146.25;100.00;52619.63;2079858;28;20092;-78
2023/11/29 04:08:35;;;;;;;36.30;26.20;;;;;;;-146.25;100.00;52623.69;2070872;28;20134;-77
2023/11/29 04:09:37;;;;;;;34.88;26.50;;;;;;;-146.25;100.00;52609.50;2079675;28;20050;-78
2023/11/29 04:10:42;;;;;;;35.90;26.73;;;;;;;-146.25;100.00;52609.50;2088205;28;20041;-78
2023/11/29 04:11:46;;;;;;;38.95;27.23;;;;;;;-146.25;100.00;52623.69;2086767;28;42019;-78
2023/11/29 04:12:50;;;;;;;37.85;26.38;;;;;;;-146.25;100.00;52639.91;2079575;28;20131;-78
2023/11/29 04:13:52;;;;;;;38.83;27.20;;;;;;;-146.25;100.00;52635.84;2080594;28;20132;-78
2023/11/29 04:14:54;;;;;;;38.17;26.83;;;;;;;-146.25;100.00;52607.47;2079360;28;20045;-78
2023/11/29 04:15:56;;;;;;;34.00;26.25;;;;;;;-146.25;100.00;52615.56;2087052;28;43682;-78
2023/11/29 04:16:58;;;;;;;35.63;26.50;;;;;;;-146.25;100.00;52623.69;2087914;28;34161;-77
2023/11/29 04:18:01;;;;;;;35.33;25.63;;;;;;;-146.25;100.00;52643.97;2087859;28;20045;-78
2023/11/29 04:19:04;;;;;;;37.90;27.08;;;;;;;-146.25;100.00;52635.84;2086937;28;33186;-76
2023/11/29 04:20:07;;;;;;;38.30;27.05;;;;;;;-146.25;100.00;52609.50;2087404;28;24704;-78
2023/11/29 04:21:24;;;;;;;36.47;26.63;;;;;;;-146.25;100.00;52627.75;2079751;28;20084;-77
2023/11/29 04:22:26;;;;;;;34.47;24.50;;;;;;;-146.25;100.00;52611.50;2087518;28;35556;-77
2023/11/29 04:23:28;;;;;;;39.05;26.67;;;;;;;-146.25;100.00;52633.81;2088020;28;20045;-78
2023/11/29 04:24:30;;;;;;;36.72;25.88;;;;;;;-146.25;100.00;52637.88;2087524;28;20807;-77
2023/11/29 04:25:32;;;;;;;34.15;25.52;;;;;;;-146.25;100.00;52595.28;2070294;28;36578;-78
2023/11/29 04:26:36;;;;;;;35.60;24.80;;;;;;;-146.25;100.00;52666.25;2079196;28;20042;-78
2023/11/29 04:27:38;;;;;;;37.08;25.75;;;;;;;-146.25;100.00;52674.38;2087374;28;31106;-78
2023/11/29 04:28:42;;;;;;;37.58;25.30;;;;;;;-146.25;100.00;52613.53;2088527;28;20038;-76
2023/11/29 04:29:45;;;;;;;36.25;25.55;;;;;;;-146.25;100.00;52654.09;2087504;28;21039;-78
2023/11/29 04:30:46;;;;;;;36.05;26.33;;;;;;;-146.25;100.00;52660.19;2079128;28;27667;-77
2023/11/29 04:31:48;;;;;;;35.80;25.88;;;;;;;-146.25;100.00;52641.94;2087113;28;27671;-78
2023/11/29 04:32:50;;;;;;;34.47;25.50;;;;;;;-146.25;100.00;52637.88;2087918;28;20075;-76
2023/11/29 04:33:52;;;;;;;34.70;25.02;;;;;;;-146.25;100.00;52627.75;2079250;28;20814;-78
2023/11/29 04:34:54;;;;;;;34.88;24.23;;;;;;;-146.25;100.00;52631.78;2086728;28;45012;-78
2023/11/29 04:35:56;;;;;;;34.97;25.55;;;;;;;-146.25;100.00;52643.97;2087422;28;20116;-78
2023/11/29 04:36:57;;;;;;;35.90;25.35;;;;;;;-146.25;100.00;52635.84;2078681;28;35462;-77
2023/11/29 04:37:59;;;;;;;34.35;24.58;;;;;;;-146.25;100.00;52623.69;2086961;28;20152;-79